createdAt,value
2022-12-31T00:01:49.605Z,35.09
2022-12-31T00:04:16.286Z,35.12
2022-12-31T00:06:42.932Z,35.09
2022-12-31T00:09:10.630Z,35.01
2022-12-31T00:11:37.775Z,35.43
2022-12-31T00:14:05.643Z,35.36
2022-12-31T00:16:36.666Z,35.07
2022-12-31T00:19:06.651Z,35.01
2022-12-31T00:21:34.100Z,35.03
2022-12-31T00:24:01.809Z,34.95
2022-12-31T00:26:30.335Z,35.02
2022-12-31T00:28:58.208Z,34.96
2022-12-31T00:31:29.943Z,34.97
2022-12-31T00:33:57.381Z,35.09
2022-12-31T00:36:27.754Z,35.17
2022-12-31T00:38:56.248Z,34.91
2022-12-31T00:41:23.127Z,34.99
2022-12-31T00:43:50.383Z,34.99
2022-12-31T00:46:17.726Z,35.02
2022-12-31T00:48:44.677Z,35.10
2022-12-31T00:51:14.146Z,34.96
2022-12-31T00:53:41.352Z,34.89
2022-12-31T00:56:14.858Z,34.91
2022-12-31T00:58:41.948Z,35.07
2022-12-31T01:01:29.789Z,34.85
2022-12-31T01:04:02.148Z,34.85
2022-12-31T01:06:28.731Z,34.93
2022-12-31T01:08:55.842Z,34.98
2022-12-31T01:11:23.585Z,34.92
2022-12-31T01:13:58.572Z,35.02
2022-12-31T01:16:37.414Z,34.87
2022-12-31T01:19:07.259Z,35.04
2022-12-31T01:21:35.214Z,35.15
2022-12-31T01:24:02.162Z,34.86
2022-12-31T01:26:29.238Z,35.25
2022-12-31T01:28:56.301Z,35.02
2022-12-31T01:31:23.766Z,35.03
2022-12-31T01:33:51.373Z,35.24
2022-12-31T01:36:26.294Z,35.12
2022-12-31T01:38:54.513Z,35.02
2022-12-31T01:41:24.267Z,35.26
2022-12-31T01:43:56.164Z,35.27
2022-12-31T01:46:47.508Z,35.57
2022-12-31T01:49:25.864Z,35.62
2022-12-31T01:52:15.230Z,35.36
2022-12-31T01:54:47.029Z,35.56
2022-12-31T01:57:14.630Z,35.53
2022-12-31T01:59:43.410Z,35.58
2022-12-31T02:02:11.594Z,35.52
2022-12-31T02:04:38.224Z,35.64
2022-12-31T02:07:09.152Z,35.31
2022-12-31T02:09:40.476Z,35.58
2022-12-31T02:12:07.890Z,35.51
2022-12-31T02:14:38.021Z,35.45
2022-12-31T02:17:24.118Z,35.53
2022-12-31T02:20:12.888Z,35.43
2022-12-31T02:23:08.398Z,35.32
2022-12-31T02:25:50.576Z,35.25
2022-12-31T02:28:49.048Z,35.23
2022-12-31T02:31:18.913Z,35.30
2022-12-31T02:33:59.006Z,35.06
2022-12-31T02:36:29.719Z,35.26
2022-12-31T02:38:57.590Z,35.31
2022-12-31T02:41:42.616Z,35.22
2022-12-31T02:44:21.722Z,35.01
2022-12-31T02:47:09.385Z,34.93
2022-12-31T02:50:03.691Z,35.02
2022-12-31T02:52:54.235Z,34.86
2022-12-31T02:55:39.254Z,34.85
2022-12-31T02:58:21.734Z,34.85
2022-12-31T03:01:13.037Z,34.89
2022-12-31T03:03:39.931Z,34.85
2022-12-31T03:06:08.051Z,34.68
2022-12-31T03:08:54.632Z,34.64
2022-12-31T03:11:40.179Z,34.79
2022-12-31T03:14:06.800Z,34.63
2022-12-31T03:16:34.847Z,34.70
2022-12-31T03:19:20.445Z,34.46
2022-12-31T03:22:05.723Z,34.61
2022-12-31T03:24:50.905Z,34.63
2022-12-31T03:27:17.434Z,34.63
2022-12-31T03:29:47.378Z,34.21
2022-12-31T03:32:14.501Z,34.31
2022-12-31T03:34:41.025Z,34.56
2022-12-31T03:37:07.566Z,34.27
2022-12-31T03:39:34.274Z,34.55
2022-12-31T03:42:00.808Z,33.88
2022-12-31T03:44:27.466Z,34.22
2022-12-31T03:46:54.611Z,34.38
2022-12-31T03:49:21.160Z,33.90
2022-12-31T03:51:47.725Z,34.36
2022-12-31T03:54:15.181Z,34.37
2022-12-31T03:56:41.722Z,34.33
2022-12-31T03:59:08.254Z,33.91
2022-12-31T04:01:35.042Z,34.01
2022-12-31T04:04:01.610Z,34.18
2022-12-31T04:06:28.219Z,34.07
2022-12-31T04:08:54.914Z,34.26
2022-12-31T04:11:21.542Z,33.76
2022-12-31T04:13:48.128Z,34.06
2022-12-31T04:16:15.383Z,33.55
2022-12-31T04:18:41.965Z,34.03
2022-12-31T04:21:08.559Z,33.88
2022-12-31T04:23:35.221Z,33.54
2022-12-31T04:26:01.892Z,33.59
2022-12-31T04:28:28.428Z,33.52
2022-12-31T04:30:55.090Z,33.49
2022-12-31T04:33:21.953Z,33.83
2022-12-31T04:35:48.554Z,33.30
2022-12-31T04:38:15.298Z,33.41
2022-12-31T04:41:01.866Z,33.33
2022-12-31T04:43:28.472Z,33.20
2022-12-31T04:45:55.019Z,33.25
2022-12-31T04:48:22.028Z,33.17
2022-12-31T04:50:48.629Z,33.41
2022-12-31T04:53:15.271Z,33.29
2022-12-31T04:55:41.831Z,33.02
2022-12-31T04:58:08.426Z,33.09
2022-12-31T05:00:34.953Z,33.51
2022-12-31T05:03:01.793Z,33.50
2022-12-31T05:05:28.361Z,33.10
2022-12-31T05:07:54.903Z,33.61
2022-12-31T05:10:21.410Z,33.00
2022-12-31T05:12:48.067Z,33.46
2022-12-31T05:15:14.616Z,33.06
2022-12-31T05:17:41.172Z,33.12
2022-12-31T05:20:08.127Z,33.37
2022-12-31T05:22:34.854Z,32.95
2022-12-31T05:25:01.535Z,33.38
2022-12-31T05:27:31.525Z,32.77
2022-12-31T05:29:58.489Z,32.64
2022-12-31T05:32:25.268Z,32.89
2022-12-31T05:34:53.574Z,32.77
2022-12-31T05:37:20.168Z,32.75
2022-12-31T05:39:46.695Z,33.06
2022-12-31T05:42:14.544Z,32.71
2022-12-31T05:44:41.048Z,32.67
2022-12-31T05:47:07.654Z,32.61
2022-12-31T05:49:34.633Z,32.46
2022-12-31T05:52:01.228Z,32.99
2022-12-31T05:54:28.981Z,32.93
2022-12-31T05:56:55.989Z,33.12
2022-12-31T05:59:22.535Z,32.26
2022-12-31T06:01:49.149Z,32.16
2022-12-31T06:04:15.827Z,32.69
2022-12-31T06:06:42.394Z,32.53
2022-12-31T06:09:08.943Z,32.20
2022-12-31T06:11:37.411Z,31.86
2022-12-31T06:14:04.563Z,31.86
2022-12-31T06:16:31.147Z,32.29
2022-12-31T06:19:00.277Z,32.11
2022-12-31T06:21:28.893Z,32.19
2022-12-31T06:23:55.650Z,32.20
2022-12-31T06:26:22.770Z,31.85
2022-12-31T06:28:49.275Z,31.82
2022-12-31T06:31:16.121Z,32.10
2022-12-31T06:33:43.006Z,32.24
2022-12-31T06:36:14.330Z,32.48
2022-12-31T06:38:41.506Z,31.95
2022-12-31T06:41:12.490Z,32.00
2022-12-31T06:43:39.590Z,32.41
2022-12-31T06:46:10.076Z,32.46
2022-12-31T06:48:36.954Z,32.71
2022-12-31T06:51:15.004Z,32.09
2022-12-31T06:53:44.528Z,32.52
2022-12-31T06:56:16.976Z,32.16
2022-12-31T06:58:43.929Z,32.48
2022-12-31T07:01:25.401Z,32.17
2022-12-31T07:04:18.403Z,32.46
2022-12-31T07:07:12.743Z,32.66
2022-12-31T07:09:45.088Z,32.19
2022-12-31T07:12:22.417Z,32.74
2022-12-31T07:14:59.669Z,32.19
2022-12-31T07:17:42.721Z,32.23
2022-12-31T07:20:12.484Z,32.88
2022-12-31T07:22:39.367Z,32.35
2022-12-31T07:25:06.840Z,32.60
2022-12-31T07:27:54.715Z,32.65
2022-12-31T07:30:24.205Z,32.78
2022-12-31T07:33:12.723Z,32.61
2022-12-31T07:35:57.412Z,32.71
2022-12-31T07:38:42.615Z,33.14
2022-12-31T07:41:41.300Z,33.14
2022-12-31T07:44:22.881Z,32.91
2022-12-31T07:46:49.506Z,33.14
2022-12-31T07:49:16.371Z,33.20
2022-12-31T07:51:43.266Z,33.14
2022-12-31T07:54:13.910Z,33.86
2022-12-31T07:56:41.820Z,33.62
2022-12-31T07:59:29.824Z,34.15
2022-12-31T08:02:00.031Z,34.30
2022-12-31T08:04:37.660Z,34.43
2022-12-31T08:07:17.118Z,34.87
2022-12-31T08:09:49.100Z,34.95
2022-12-31T08:12:15.750Z,34.34
2022-12-31T08:14:45.188Z,34.87
2022-12-31T08:17:13.379Z,34.85
2022-12-31T08:19:40.971Z,34.71
2022-12-31T08:22:25.725Z,34.77
2022-12-31T08:25:15.472Z,34.26
2022-12-31T08:28:11.041Z,34.44
2022-12-31T08:30:56.447Z,34.63
2022-12-31T08:33:34.254Z,34.42
2022-12-31T08:36:14.981Z,34.46
2022-12-31T08:38:53.233Z,34.29
2022-12-31T08:41:31.652Z,33.73
2022-12-31T08:44:20.198Z,34.07
2022-12-31T08:46:55.671Z,34.60
2022-12-31T08:49:26.704Z,34.59
2022-12-31T08:51:53.471Z,34.83
2022-12-31T08:54:20.208Z,35.08
2022-12-31T08:56:57.500Z,34.96
2022-12-31T08:59:30.499Z,35.35
2022-12-31T09:02:03.787Z,35.14
2022-12-31T09:04:53.858Z,35.25
2022-12-31T09:07:25.745Z,35.42
2022-12-31T09:10:11.090Z,35.54
2022-12-31T09:12:59.235Z,35.65
2022-12-31T09:15:52.479Z,35.81
2022-12-31T09:18:19.263Z,35.33
2022-12-31T09:20:46.627Z,35.09
2022-12-31T09:23:13.599Z,34.70
2022-12-31T09:25:55.736Z,35.17
2022-12-31T09:28:39.330Z,35.53
2022-12-31T09:31:14.752Z,35.63
2022-12-31T09:33:55.885Z,35.96
2022-12-31T09:36:30.362Z,35.98
2022-12-31T09:39:23.242Z,36.32
2022-12-31T09:42:11.605Z,36.43
2022-12-31T09:44:53.963Z,36.53
2022-12-31T09:47:48.507Z,36.63
2022-12-31T09:50:38.044Z,36.84
2022-12-31T09:53:41.100Z,37.12
2022-12-31T09:56:32.972Z,36.97
2022-12-31T09:59:05.382Z,37.03
2022-12-31T10:01:46.626Z,37.07
2022-12-31T10:04:39.780Z,37.14
2022-12-31T10:07:15.611Z,37.18
2022-12-31T10:09:49.918Z,37.27
2022-12-31T10:12:23.891Z,37.59
2022-12-31T10:15:09.328Z,37.38
2022-12-31T10:18:05.367Z,36.72
2022-12-31T10:21:19.726Z,36.60
2022-12-31T10:24:08.280Z,36.89
2022-12-31T10:27:07.182Z,37.10
2022-12-31T10:29:47.259Z,36.92
2022-12-31T10:32:31.666Z,37.40
2022-12-31T10:35:38.161Z,37.18
2022-12-31T10:38:53.225Z,37.31
2022-12-31T10:41:49.693Z,37.33
2022-12-31T10:44:52.036Z,37.85
2022-12-31T10:47:27.197Z,37.41
2022-12-31T10:50:15.417Z,37.48
2022-12-31T10:53:01.009Z,37.56
2022-12-31T10:55:54.235Z,37.72
2022-12-31T10:58:46.553Z,37.82
2022-12-31T11:01:17.797Z,37.83
2022-12-31T11:04:03.527Z,38.03
2022-12-31T11:06:51.541Z,38.30
2022-12-31T11:09:38.964Z,38.35
2022-12-31T11:12:21.903Z,38.14
2022-12-31T11:15:16.774Z,38.38
2022-12-31T11:17:57.024Z,38.42
2022-12-31T11:20:36.849Z,38.47
2022-12-31T11:23:26.527Z,38.75
2022-12-31T11:26:16.753Z,38.26
2022-12-31T11:29:04.691Z,39.25
2022-12-31T11:31:40.405Z,39.76
2022-12-31T11:34:37.653Z,39.86
2022-12-31T11:37:28.659Z,39.54
2022-12-31T11:40:08.005Z,39.84
2022-12-31T11:42:56.738Z,39.89
2022-12-31T11:45:43.220Z,39.63
2022-12-31T11:48:31.778Z,39.77
2022-12-31T11:51:38.930Z,39.67
2022-12-31T11:54:34.183Z,40.20
2022-12-31T11:57:38.858Z,39.78
2022-12-31T12:00:18.848Z,40.67
2022-12-31T12:03:02.053Z,40.16
2022-12-31T12:05:29.168Z,40.11
2022-12-31T12:07:56.780Z,40.17
2022-12-31T12:10:33.517Z,40.30
2022-12-31T12:13:14.090Z,40.45
2022-12-31T12:15:42.769Z,39.96
2022-12-31T12:18:18.575Z,40.20
2022-12-31T12:20:46.318Z,40.42
2022-12-31T12:23:32.919Z,40.09
2022-12-31T12:25:59.867Z,40.27
2022-12-31T12:28:29.296Z,40.12
2022-12-31T12:31:04.935Z,40.57
2022-12-31T12:33:41.445Z,40.32
2022-12-31T12:36:10.260Z,39.94
2022-12-31T12:38:37.430Z,39.50
2022-12-31T12:41:06.714Z,39.32
2022-12-31T12:43:35.950Z,39.81
2022-12-31T12:46:17.792Z,39.92
2022-12-31T12:48:46.879Z,40.10
2022-12-31T12:51:20.345Z,40.16
2022-12-31T12:53:59.799Z,40.08
2022-12-31T12:56:49.799Z,39.90
2022-12-31T12:59:33.195Z,39.98
2022-12-31T13:02:34.585Z,40.25
2022-12-31T13:05:32.130Z,39.81
2022-12-31T13:08:38.639Z,40.04
2022-12-31T13:11:22.742Z,39.75
2022-12-31T13:13:51.900Z,40.04
2022-12-31T13:16:31.568Z,39.85
2022-12-31T13:19:12.811Z,39.68
2022-12-31T13:21:46.073Z,39.58
2022-12-31T13:24:24.030Z,39.38
2022-12-31T13:26:57.614Z,39.02
2022-12-31T13:29:28.251Z,38.98
2022-12-31T13:31:56.052Z,39.51
2022-12-31T13:34:27.642Z,39.19
2022-12-31T13:36:55.232Z,39.30
2022-12-31T13:39:29.731Z,39.68
2022-12-31T13:42:01.350Z,39.40
2022-12-31T13:44:38.759Z,39.31
2022-12-31T13:47:24.877Z,39.38
2022-12-31T13:50:15.338Z,39.22
2022-12-31T13:52:53.819Z,39.37
2022-12-31T13:55:24.181Z,39.66
2022-12-31T13:57:53.956Z,39.34
2022-12-31T14:00:24.133Z,39.33
2022-12-31T14:03:15.749Z,39.55
2022-12-31T14:06:05.285Z,39.15
2022-12-31T14:08:31.937Z,39.09
2022-12-31T14:11:08.225Z,39.11
2022-12-31T14:13:45.350Z,38.93
2022-12-31T14:16:22.906Z,39.13
2022-12-31T14:19:06.911Z,39.47
2022-12-31T14:21:40.039Z,39.19
2022-12-31T14:24:33.986Z,39.42
2022-12-31T14:27:05.372Z,39.14
2022-12-31T14:29:45.912Z,39.31
2022-12-31T14:32:59.549Z,39.29
2022-12-31T14:35:36.707Z,39.90
2022-12-31T14:38:16.303Z,39.31
2022-12-31T14:41:11.196Z,39.91
2022-12-31T14:43:44.154Z,39.93
2022-12-31T14:46:37.689Z,39.88
2022-12-31T14:49:21.405Z,39.78
2022-12-31T14:51:48.130Z,39.82
2022-12-31T14:54:29.612Z,39.84
2022-12-31T14:56:56.197Z,39.45
2022-12-31T14:59:31.489Z,39.67
2022-12-31T15:02:01.153Z,39.86
2022-12-31T15:04:33.347Z,39.68
2022-12-31T15:07:25.522Z,40.09
2022-12-31T15:10:17.304Z,40.16
2022-12-31T15:13:05.241Z,40.53
2022-12-31T15:15:36.452Z,40.12
2022-12-31T15:18:10.738Z,39.88
2022-12-31T15:20:59.432Z,40.43
2022-12-31T15:23:35.615Z,40.06
2022-12-31T15:26:03.326Z,40.65
2022-12-31T15:28:34.403Z,40.25
2022-12-31T15:31:18.204Z,40.68
2022-12-31T15:34:03.336Z,40.14
2022-12-31T15:36:39.006Z,40.52
2022-12-31T15:39:11.345Z,40.42
2022-12-31T15:42:10.288Z,40.68
2022-12-31T15:44:48.855Z,40.31
2022-12-31T15:47:20.568Z,40.48
2022-12-31T15:49:47.813Z,40.00
2022-12-31T15:52:32.319Z,40.09
2022-12-31T15:55:00.320Z,39.95
2022-12-31T15:57:39.733Z,40.63
2022-12-31T16:00:14.520Z,40.51
2022-12-31T16:02:43.074Z,40.46
2022-12-31T16:05:22.723Z,40.58
2022-12-31T16:07:55.503Z,40.29
2022-12-31T16:10:25.487Z,40.25
2022-12-31T16:12:53.940Z,40.75
2022-12-31T16:15:27.683Z,40.81
2022-12-31T16:17:59.884Z,41.85
2022-12-31T16:20:30.254Z,40.92
2022-12-31T16:22:58.309Z,41.09
2022-12-31T16:25:33.128Z,41.13
2022-12-31T16:28:02.204Z,41.63
2022-12-31T16:30:30.831Z,41.34
2022-12-31T16:33:01.885Z,41.47
2022-12-31T16:35:30.691Z,41.26
2022-12-31T16:38:17.486Z,41.77
2022-12-31T16:41:02.069Z,41.82
2022-12-31T16:43:40.269Z,42.60
2022-12-31T16:46:42.355Z,42.31
2022-12-31T16:49:20.224Z,41.97
2022-12-31T16:51:47.098Z,41.47
2022-12-31T16:54:20.970Z,42.06
2022-12-31T16:56:47.837Z,42.16
2022-12-31T16:59:41.499Z,42.25
2022-12-31T17:02:38.552Z,42.22
2022-12-31T17:05:18.724Z,41.91
2022-12-31T17:07:45.432Z,42.34
2022-12-31T17:10:20.453Z,42.61
2022-12-31T17:13:25.298Z,42.57
2022-12-31T17:15:43.124Z,42.96
2022-12-31T17:18:20.694Z,42.36
2022-12-31T17:20:49.635Z,42.52
2022-12-31T17:23:28.752Z,42.96
2022-12-31T17:26:15.516Z,43.04
2022-12-31T17:28:46.213Z,42.78
2022-12-31T17:31:33.553Z,43.09
2022-12-31T17:34:12.308Z,42.93
2022-12-31T17:37:00.774Z,43.41
2022-12-31T17:39:40.756Z,42.65
2022-12-31T17:42:10.490Z,42.89
2022-12-31T17:44:38.789Z,43.14
2022-12-31T17:47:05.932Z,43.58
2022-12-31T17:49:33.244Z,43.06
2022-12-31T17:51:59.801Z,43.35
2022-12-31T17:54:26.346Z,43.66
2022-12-31T17:56:53.671Z,43.03
2022-12-31T17:59:25.411Z,43.58
2022-12-31T18:01:52.222Z,43.70
2022-12-31T18:04:20.682Z,43.20
2022-12-31T18:06:47.199Z,47.65
2022-12-31T18:09:15.801Z,46.68
2022-12-31T18:11:42.828Z,46.68
2022-12-31T18:14:13.360Z,46.46
2022-12-31T18:16:40.055Z,44.62
2022-12-31T18:19:23.508Z,43.73
2022-12-31T18:22:00.663Z,46.30
2022-12-31T18:24:27.284Z,46.33
2022-12-31T18:26:54.371Z,46.34
2022-12-31T18:29:21.869Z,46.43
2022-12-31T18:31:49.359Z,46.58
2022-12-31T18:34:18.223Z,46.46
2022-12-31T18:36:45.354Z,46.69
2022-12-31T18:39:11.968Z,46.80
2022-12-31T18:41:51.000Z,46.57
2022-12-31T18:44:17.640Z,46.66
2022-12-31T18:46:44.193Z,46.75
2022-12-31T18:49:10.783Z,47.02
2022-12-31T18:51:37.384Z,47.23
2022-12-31T18:54:04.693Z,47.07
2022-12-31T18:56:31.405Z,46.92
2022-12-31T18:58:59.645Z,47.12
2022-12-31T19:01:34.829Z,47.58
2022-12-31T19:04:28.133Z,47.17
2022-12-31T19:06:55.235Z,47.00
2022-12-31T19:12:11.882Z,47.42
2022-12-31T19:14:38.407Z,47.85
2022-12-31T19:19:30.452Z,47.72
2022-12-31T19:21:57.063Z,47.97
2022-12-31T19:24:27.745Z,48.19
2022-12-31T19:26:54.868Z,47.81
2022-12-31T19:29:26.409Z,47.81
2022-12-31T19:31:53.355Z,47.63
2022-12-31T19:34:20.294Z,47.65
2022-12-31T19:36:46.881Z,47.81
2022-12-31T19:39:17.151Z,47.80
2022-12-31T19:41:44.878Z,47.77
2022-12-31T19:44:17.458Z,47.81
2022-12-31T19:46:44.587Z,47.50
2022-12-31T19:49:12.471Z,47.50
2022-12-31T19:51:39.680Z,47.71
2022-12-31T19:54:06.831Z,47.54
2022-12-31T19:56:33.719Z,47.54
2022-12-31T19:59:05.622Z,47.84
2022-12-31T20:01:32.307Z,47.68
2022-12-31T20:03:59.068Z,47.50
2022-12-31T20:06:26.534Z,47.85
2022-12-31T20:08:53.051Z,48.13
2022-12-31T20:11:21.620Z,48.18
2022-12-31T20:13:49.368Z,47.62
2022-12-31T20:16:18.204Z,47.86
2022-12-31T20:18:46.286Z,47.91
2022-12-31T20:21:17.798Z,47.98
2022-12-31T20:23:45.018Z,48.12
2022-12-31T20:26:11.927Z,48.07
2022-12-31T20:28:38.783Z,48.20
2022-12-31T20:31:07.517Z,48.13
2022-12-31T20:33:34.872Z,48.32
2022-12-31T20:36:03.235Z,48.05
2022-12-31T20:38:29.817Z,48.38
2022-12-31T20:41:02.813Z,47.77
2022-12-31T20:43:33.147Z,48.18
2022-12-31T20:46:00.084Z,48.11
2022-12-31T20:48:26.729Z,47.90
2022-12-31T20:50:55.283Z,47.76
2022-12-31T20:53:21.855Z,47.88
2022-12-31T20:55:50.308Z,47.96
2022-12-31T20:58:17.320Z,48.20
2022-12-31T21:00:51.134Z,48.35
2022-12-31T21:03:53.572Z,47.89
2022-12-31T21:06:05.362Z,47.87
2022-12-31T21:08:34.974Z,48.07
2022-12-31T21:11:02.520Z,47.98
2022-12-31T21:13:29.520Z,48.40
2022-12-31T21:15:56.093Z,48.05
2022-12-31T21:18:22.818Z,48.22
2022-12-31T21:20:51.169Z,48.13
2022-12-31T21:23:18.852Z,48.28
2022-12-31T21:25:45.892Z,48.29
2022-12-31T21:28:12.689Z,48.06
2022-12-31T21:30:40.672Z,48.09
2022-12-31T21:33:09.200Z,48.00
2022-12-31T21:35:48.715Z,48.10
2022-12-31T21:38:19.837Z,48.18
2022-12-31T21:40:46.515Z,48.25
2022-12-31T21:43:14.857Z,48.31
2022-12-31T21:45:41.475Z,48.30
2022-12-31T21:48:22.085Z,48.14
2022-12-31T21:50:50.975Z,47.97
2022-12-31T21:53:24.549Z,48.00
2022-12-31T21:56:08.251Z,48.47
2022-12-31T21:58:43.004Z,48.05
2022-12-31T22:01:38.746Z,48.11
2022-12-31T22:04:05.884Z,48.40
2022-12-31T22:06:36.198Z,48.25
2022-12-31T22:09:02.817Z,48.22
2022-12-31T22:11:29.510Z,48.39
2022-12-31T22:13:56.192Z,48.14
2022-12-31T22:16:23.125Z,48.16
2022-12-31T22:18:49.983Z,48.33
2022-12-31T22:21:20.407Z,48.52
2022-12-31T22:23:49.535Z,48.18
2022-12-31T22:26:18.289Z,48.01
2022-12-31T22:28:45.836Z,48.11
2022-12-31T22:31:17.938Z,48.38
2022-12-31T22:33:45.378Z,48.18
2022-12-31T22:36:14.672Z,48.26
2022-12-31T22:38:41.692Z,48.09
2022-12-31T22:41:11.511Z,48.07
2022-12-31T22:43:41.003Z,48.22
2022-12-31T22:46:13.280Z,48.02
2022-12-31T22:48:40.340Z,48.09
2022-12-31T22:51:07.557Z,47.97
2022-12-31T22:53:34.353Z,47.89
2022-12-31T22:56:00.876Z,47.86
2022-12-31T22:58:27.580Z,48.15
2022-12-31T23:00:54.099Z,48.25
2022-12-31T23:03:20.863Z,47.89
2022-12-31T23:05:51.630Z,48.09
2022-12-31T23:08:23.260Z,48.19
2022-12-31T23:11:01.109Z,48.22
2022-12-31T23:13:50.974Z,47.82
2022-12-31T23:16:36.977Z,47.96
2022-12-31T23:19:22.191Z,47.71
2022-12-31T23:22:07.435Z,48.18
2022-12-31T23:24:35.516Z,47.71
2022-12-31T23:27:02.069Z,48.03
2022-12-31T23:29:28.643Z,48.01
2022-12-31T23:31:55.242Z,48.39
2022-12-31T23:34:22.337Z,48.28
2022-12-31T23:36:48.933Z,48.26
2022-12-31T23:39:15.614Z,48.67
2022-12-31T23:41:42.601Z,48.71
2022-12-31T23:44:11.784Z,48.67
2022-12-31T23:46:38.950Z,48.81
2022-12-31T23:49:05.642Z,49.22
2022-12-31T23:51:32.547Z,49.25
2022-12-31T23:53:59.240Z,49.46
2022-12-31T23:56:25.767Z,49.58
2022-12-31T23:58:56.377Z,49.33
